Time;durP1;ratioP1;P1;durP2;ratioP2;P2;SDS_P1;SDS_P2;PMS_P1;PMS_P2;Temp;Humidity;BMP_temperature;BMP_pressure;BME280_temperature;BME280_humidity;BME280_pressure;Samples;Min_cycle;Max_cycle;Signal;HPM_P1;HPM_P2
2022/05/17 00:00:54;;;;;;;9.57;5.18;;;;;;;18.54;66.57;101019.41;4143814;28;20046;-60
2022/05/17 00:02:58;;;;;;;7.93;4.60;;;;;;;18.42;66.97;101019.56;4150823;28;20479;-60
2022/05/17 00:05:01;;;;;;;7.47;4.43;;;;;;;18.35;67.24;101020.50;4154828;28;20136;-60
2022/05/17 00:07:06;;;;;;;9.48;4.78;;;;;;;18.37;67.15;101024.88;4145615;28;20048;-60
2022/05/17 00:09:11;;;;;;;8.13;4.90;;;;;;;18.35;66.45;101018.72;4156344;28;20037;-60
2022/05/17 00:11:15;;;;;;;8.35;5.10;;;;;;;18.29;67.25;101022.28;4140450;28;20046;-60
2022/05/17 00:13:18;;;;;;;8.40;4.47;;;;;;;18.23;67.17;101021.47;4152727;28;20124;-61
2022/05/17 00:15:21;;;;;;;8.70;5.22;;;;;;;18.20;67.41;101026.75;4148530;28;20044;-60
2022/05/17 00:17:24;;;;;;;6.00;4.18;;;;;;;18.13;67.95;101018.03;4141912;28;20081;-60
2022/05/17 00:19:28;;;;;;;6.60;4.60;;;;;;;18.13;67.86;101018.03;4153974;28;20038;-60
2022/05/17 00:21:31;;;;;;;8.45;4.20;;;;;;;18.13;67.82;101023.31;4137066;28;20042;-60
2022/05/17 00:23:37;;;;;;;11.15;4.75;;;;;;;18.13;67.79;101013.63;4160659;28;20055;-60
2022/05/17 00:25:42;;;;;;;7.20;4.30;;;;;;;18.19;67.49;101020.59;4152153;28;20034;-60
2022/05/17 00:27:45;;;;;;;7.25;4.90;;;;;;;18.22;67.61;101020.56;4147224;28;20399;-60
2022/05/17 00:29:48;;;;;;;7.78;4.57;;;;;;;18.24;67.20;101015.34;4139396;28;20468;-60
2022/05/17 00:31:51;;;;;;;8.57;4.28;;;;;;;18.28;66.97;101022.28;4141158;28;20042;-60
2022/05/17 00:33:54;;;;;;;6.68;4.45;;;;;;;18.24;67.67;101020.59;4152554;28;20041;-60
2022/05/17 00:35:57;;;;;;;8.68;4.65;;;;;;;18.22;67.29;101024.97;4150342;28;20440;-60
2022/05/17 00:38:00;;;;;;;8.02;4.55;;;;;;;18.21;67.44;101015.31;4149173;28;20042;-60
2022/05/17 00:40:05;;;;;;;7.60;4.25;;;;;;;18.20;67.89;101016.25;4152851;28;20121;-60
2022/05/17 00:42:10;;;;;;;7.22;3.80;;;;;;;18.20;67.48;101013.59;4143948;28;20125;-60
2022/05/17 00:46:43;;;;;;;7.90;4.55;;;;;;;18.13;67.67;101018.03;4141028;28;20046;-60
2022/05/17 00:48:46;;;;;;;7.45;5.30;;;;;;;18.07;67.70;101011.06;4156871;28;20057;-61
2022/05/17 00:50:51;;;;;;;6.45;4.85;;;;;;;18.08;67.58;101014.59;4138162;28;20491;-60
2022/05/17 00:52:56;;;;;;;6.95;4.78;;;;;;;18.07;67.31;101013.69;4145863;28;20037;-60
2022/05/17 00:55:02;;;;;;;8.57;5.10;;;;;;;18.09;67.41;101013.69;4142426;28;20034;-60
2022/05/17 00:57:14;;;;;;;8.27;5.00;;;;;;;18.12;67.81;101011.91;4138212;28;20107;-60
2022/05/17 00:59:17;;;;;;;9.77;4.80;;;;;;;18.09;67.93;101009.31;4142429;28;20408;-60
2022/05/17 01:01:23;;;;;;;12.85;5.93;;;;;;;18.09;68.14;101018.94;4146441;28;20056;-60
2022/05/17 01:03:26;;;;;;;6.13;4.47;;;;;;;18.06;67.96;101021.59;4152349;28;20042;-60
2022/05/17 01:05:33;;;;;;;7.33;5.07;;;;;;;18.06;68.25;101019.88;4151161;28;20414;-60
2022/05/17 01:07:40;;;;;;;10.50;5.82;;;;;;;18.02;68.25;101025.13;4145898;28;20304;-60
2022/05/17 01:09:43;;;;;;;12.18;5.55;;;;;;;18.00;68.39;101019.88;4142166;28;20052;-60
2022/05/17 01:11:46;;;;;;;8.18;4.88;;;;;;;18.02;68.35;101026.03;4154001;28;20038;-60
2022/05/17 01:16:11;;;;;;;9.45;4.95;;;;;;;17.96;68.76;101016.41;4144684;28;20046;-60
2022/05/17 01:18:14;;;;;;;9.07;4.83;;;;;;;17.94;68.44;101017.31;4142676;28;20034;-60
2022/05/17 01:20:17;;;;;;;9.45;5.30;;;;;;;17.95;68.51;101019.91;4157630;28;20288;-60
2022/05/17 01:22:22;;;;;;;11.15;4.88;;;;;;;17.93;68.73;101020.81;4141002;28;20041;-60
2022/05/17 01:24:25;;;;;;;9.55;5.07;;;;;;;17.88;68.75;101018.19;4158383;28;20060;-60
2022/05/17 01:26:32;;;;;;;11.30;5.53;;;;;;;17.91;68.47;101017.34;4145150;28;20061;-60
2022/05/17 01:28:38;;;;;;;9.05;5.68;;;;;;;17.88;68.37;101022.59;4141633;28;20066;-60
2022/05/17 01:30:41;;;;;;;8.20;4.93;;;;;;;17.85;68.44;101017.34;4153141;28;20058;-60
2022/05/17 01:32:44;;;;;;;8.25;5.00;;;;;;;17.83;68.39;101011.22;4152736;28;20038;-60
2022/05/17 01:34:47;;;;;;;7.88;5.63;;;;;;;17.82;68.17;101017.38;4148660;28;20037;-60
2022/05/17 01:36:50;;;;;;;8.13;5.30;;;;;;;17.79;68.37;101013.00;4160560;28;20065;-60
2022/05/17 01:38:57;;;;;;;8.20;5.20;;;;;;;17.79;68.33;101005.97;4142658;28;20058;-60
2022/05/17 01:41:00;;;;;;;9.68;5.68;;;;;;;17.75;67.91;101006.88;4168269;28;20558;-60
2022/05/17 01:43:04;;;;;;;7.82;5.80;;;;;;;17.75;68.04;101009.50;4169453;28;20045;-60
2022/05/17 01:45:07;;;;;;;11.20;6.35;;;;;;;17.73;68.07;101007.78;4144518;28;20125;-60
2022/05/17 01:47:11;;;;;;;7.87;4.87;;;;;;;17.63;68.80;101017.47;4147164;28;20120;-60
2022/05/17 01:49:14;;;;;;;8.27;5.47;;;;;;;17.60;68.55;101018.38;4146148;28;20434;-60
2022/05/17 01:51:17;;;;;;;7.75;5.03;;;;;;;17.57;68.80;101014.91;4142227;28;20041;-60
2022/05/17 01:53:20;;;;;;;9.07;5.43;;;;;;;17.48;69.15;101018.44;4147183;28;20042;-60
2022/05/17 01:55:24;;;;;;;9.02;4.88;;;;;;;17.52;69.03;101019.28;4147932;28;20051;-60
2022/05/17 01:57:27;;;;;;;8.55;5.45;;;;;;;17.53;69.22;101021.91;4155489;28;20045;-60
2022/05/17 01:59:30;;;;;;;9.98;5.03;;;;;;;17.55;69.02;101014.91;4148882;28;20124;-60
2022/05/17 02:01:33;;;;;;;8.57;5.50;;;;;;;17.52;69.02;101024.56;4139681;28;20126;-60
2022/05/17 02:03:36;;;;;;;8.25;5.03;;;;;;;17.52;68.69;101027.19;4152380;28;20128;-60
2022/05/17 02:05:39;;;;;;;9.52;5.30;;;;;;;17.47;68.66;101027.22;4145610;28;20041;-60
2022/05/17 02:07:42;;;;;;;8.00;5.15;;;;;;;17.40;69.13;101028.97;4150189;28;20480;-60
2022/05/17 02:09:45;;;;;;;9.75;5.70;;;;;;;17.37;69.34;101031.63;4152867;28;20123;-61
2022/05/17 02:11:50;;;;;;;10.60;5.45;;;;;;;17.33;69.46;101027.25;4146341;28;20038;-61
2022/05/17 02:13:53;;;;;;;10.10;6.10;;;;;;;17.37;69.51;101031.63;4169644;28;20120;-60
2022/05/17 02:15:56;;;;;;;11.93;5.90;;;;;;;17.39;69.30;101029.88;4151968;28;20041;-61
2022/05/17 02:17:59;;;;;;;11.52;5.95;;;;;;;17.36;69.29;101034.25;4143067;28;20496;-60
2022/05/17 02:20:02;;;;;;;8.27;5.95;;;;;;;17.38;69.44;101033.38;4147250;28;20550;-61
2022/05/17 02:22:05;;;;;;;9.45;6.18;;;;;;;17.39;69.19;101029.88;4153135;28;20038;-60
2022/05/17 02:24:09;;;;;;;9.23;5.55;;;;;;;17.35;69.16;101028.16;4143577;28;20097;-60
2022/05/17 02:26:12;;;;;;;8.05;5.18;;;;;;;17.32;69.27;101028.16;4145873;28;20129;-61
2022/05/17 02:28:16;;;;;;;8.63;5.22;;;;;;;17.32;69.32;101033.41;4147592;28;20042;-60
2022/05/17 02:30:20;;;;;;;9.25;5.38;;;;;;;17.31;69.26;101036.06;4146645;28;20535;-61
2022/05/17 02:32:23;;;;;;;9.48;5.80;;;;;;;17.29;69.36;101033.44;4138585;28;20042;-60
2022/05/17 02:34:26;;;;;;;11.43;6.13;;;;;;;17.27;69.36;101035.19;4147680;28;20125;-60
2022/05/17 02:36:30;;;;;;;9.05;5.60;;;;;;;17.19;69.26;101032.59;4148580;28;20450;-60
2022/05/17 02:38:33;;;;;;;9.00;5.88;;;;;;;17.16;69.07;101029.97;4151471;28;20116;-60
2022/05/17 02:40:36;;;;;;;10.02;5.78;;;;;;;17.19;69.56;101037.84;4153545;28;20103;-61
2022/05/17 02:42:39;;;;;;;8.52;5.30;;;;;;;17.20;69.08;101036.09;4148088;28;20042;-60
2022/05/17 02:44:44;;;;;;;7.75;5.97;;;;;;;17.21;69.13;101028.19;4150291;28;20093;-60
2022/05/17 02:46:46;;;;;;;7.68;4.68;;;;;;;17.19;69.37;101036.97;4143515;28;20507;-60
2022/05/17 02:48:49;;;;;;;9.07;6.07;;;;;;;17.19;69.26;101031.72;4147317;28;20092;-60
2022/05/17 02:50:55;;;;;;;7.63;5.40;;;;;;;17.19;69.11;101036.97;4153090;28;20046;-60
2022/05/17 02:52:58;;;;;;;10.38;6.13;;;;;;;17.20;69.03;101043.97;4149957;28;20049;-60
2022/05/17 02:55:01;;;;;;;9.68;5.30;;;;;;;17.19;69.10;101035.22;4145251;28;20041;-60
2022/05/17 02:57:04;;;;;;;7.47;5.03;;;;;;;17.14;69.35;101033.47;4149186;28;20120;-61
2022/05/17 02:59:07;;;;;;;12.23;5.90;;;;;;;17.13;69.46;101036.97;4145508;28;20052;-60
2022/05/17 03:01:12;;;;;;;10.27;5.35;;;;;;;17.04;69.72;101045.78;4144611;28;20041;-60
2022/05/17 03:03:14;;;;;;;11.80;5.53;;;;;;;16.95;69.99;101046.66;4151677;28;20038;-60
2022/05/17 03:05:17;;;;;;;9.88;5.85;;;;;;;16.98;69.89;101049.31;4132124;28;20096;-60
2022/05/17 03:07:21;;;;;;;7.60;5.00;;;;;;;16.98;69.85;101044.06;4149955;28;20040;-60
2022/05/17 03:09:24;;;;;;;7.57;5.22;;;;;;;17.01;69.58;101051.94;4146925;28;20310;-61
2022/05/17 03:11:27;;;;;;;8.50;5.63;;;;;;;17.02;69.78;101053.66;4141980;28;20049;-60
2022/05/17 03:13:30;;;;;;;9.32;5.70;;;;;;;16.97;70.15;101051.91;4150654;28;20048;-60
2022/05/17 03:15:33;;;;;;;10.60;6.28;;;;;;;17.02;69.76;101050.16;4150455;28;20186;-61
2022/05/17 03:17:38;;;;;;;9.50;6.25;;;;;;;16.99;70.02;101051.03;4166040;28;20045;-61
2022/05/17 03:19:41;;;;;;;12.32;5.53;;;;;;;16.98;69.93;101054.56;4155606;28;20033;-60
2022/05/17 03:21:46;;;;;;;12.73;6.50;;;;;;;16.97;70.26;101057.16;4148168;28;20037;-60
2022/05/17 03:23:49;;;;;;;9.50;6.15;;;;;;;16.96;70.41;101056.31;4157345;28;20494;-60
2022/05/17 03:25:51;;;;;;;8.38;6.18;;;;;;;16.94;70.42;101068.59;4147137;28;20052;-60
2022/05/17 03:27:55;;;;;;;9.60;6.28;;;;;;;16.90;70.59;101064.22;4154907;28;20411;-60
2022/05/17 03:29:58;;;;;;;11.43;5.93;;;;;;;16.91;70.11;101066.81;4150063;28;20054;-60
2022/05/17 03:32:02;;;;;;;13.25;5.80;;;;;;;16.94;69.94;101063.31;4134568;28;20526;-60
2022/05/17 03:34:06;;;;;;;8.95;6.05;;;;;;;16.98;69.99;101075.59;4144181;28;20102;-60
2022/05/17 03:36:11;;;;;;;9.10;4.85;;;;;;;16.97;69.96;101063.31;4153137;28;20133;-61
2022/05/17 03:38:13;;;;;;;9.27;6.28;;;;;;;16.96;70.20;101073.81;4146246;28;20052;-60
2022/05/17 03:40:16;;;;;;;7.95;5.95;;;;;;;16.97;69.68;101067.69;4152157;28;20460;-60
2022/05/17 03:42:20;;;;;;;9.52;6.07;;;;;;;16.91;70.25;101068.59;4155007;28;20040;-60
2022/05/17 03:44:23;;;;;;;10.05;6.47;;;;;;;16.86;70.08;101076.41;4156288;28;20040;-60
2022/05/17 03:46:25;;;;;;;9.82;6.22;;;;;;;16.91;70.17;101079.09;4149300;28;20042;-60
2022/05/17 03:48:30;;;;;;;7.90;5.25;;;;;;;16.89;70.37;101081.72;4149736;28;20100;-60
2022/05/17 03:50:34;;;;;;;9.98;6.10;;;;;;;16.87;70.33;101080.84;4143260;28;20042;-60
2022/05/17 03:52:37;;;;;;;7.25;5.72;;;;;;;16.90;69.92;101082.59;4145069;28;20048;-61
2022/05/17 03:54:40;;;;;;;12.20;6.40;;;;;;;16.91;69.57;101081.72;4154960;28;20140;-60
2022/05/17 03:56:43;;;;;;;11.18;7.05;;;;;;;16.90;69.67;101082.59;4154017;28;20118;-60
2022/05/17 03:58:46;;;;;;;8.23;5.90;;;;;;;16.85;69.84;101084.31;4151427;28;20033;-61
2022/05/17 04:00:49;;;;;;;9.88;6.18;;;;;;;16.84;69.91;101088.69;4153295;28;20057;-60
2022/05/17 04:02:52;;;;;;;9.68;5.85;;;;;;;16.87;70.00;101091.34;4147358;28;20399;-60
2022/05/17 04:04:56;;;;;;;8.48;5.63;;;;;;;16.89;69.96;101083.47;4142346;28;20048;-60
2022/05/17 04:07:00;;;;;;;9.95;6.20;;;;;;;16.90;69.85;101093.09;4144583;28;20415;-60
2022/05/17 04:09:03;;;;;;;;;;;;;;;16.73;70.24;101088.72;4133579;28;20111;-60
2022/05/17 04:11:06;;;;;;;8.18;5.68;;;;;;;16.82;70.38;101094.81;4150694;28;19964;-60
2022/05/17 04:13:09;;;;;;;8.55;6.10;;;;;;;16.87;70.42;101093.06;4148646;28;20041;-60
2022/05/17 04:15:15;;;;;;;9.98;6.72;;;;;;;16.94;70.20;101089.59;4140535;28;20226;-60
2022/05/17 04:17:18;;;;;;;8.60;6.50;;;;;;;16.92;70.50;101099.22;4162998;28;20112;-59
2022/05/17 04:19:21;;;;;;;11.25;7.20;;;;;;;16.95;70.36;101096.56;4143309;28;20052;-60
2022/05/17 04:21:24;;;;;;;10.57;6.85;;;;;;;16.90;70.30;101085.22;4144233;28;20042;-60
2022/05/17 04:23:29;;;;;;;7.85;6.60;;;;;;;16.88;70.37;101087.84;4151238;28;20041;-60
2022/05/17 04:25:31;;;;;;;12.15;6.75;;;;;;;16.85;70.57;101084.31;4152016;28;20038;-60
2022/05/17 04:27:35;;;;;;;10.18;7.00;;;;;;;16.84;70.56;101087.81;4154862;28;20045;-60
2022/05/17 04:29:38;;;;;;;9.52;6.55;;;;;;;16.80;70.76;101083.44;4144821;28;20064;-59
2022/05/17 04:31:41;;;;;;;9.70;6.95;;;;;;;16.82;70.86;101084.31;4144508;28;20040;-60
2022/05/17 04:33:45;;;;;;;8.95;6.80;;;;;;;16.85;70.87;101084.31;4147071;28;20038;-60
2022/05/17 04:35:47;;;;;;;8.38;6.35;;;;;;;16.87;71.10;101087.81;4151964;28;20030;-60
2022/05/17 04:37:50;;;;;;;8.57;6.38;;;;;;;16.92;70.94;101088.69;4143715;28;20453;-60
2022/05/17 04:39:55;;;;;;;10.13;6.18;;;;;;;16.95;71.03;101091.31;4146498;28;20038;-60
2022/05/17 04:41:58;;;;;;;9.77;6.45;;;;;;;16.97;70.91;101094.84;4149391;28;20522;-60
2022/05/17 04:44:00;;;;;;;8.60;5.50;;;;;;;16.98;71.08;101093.97;4147652;28;20124;-60
2022/05/17 04:46:03;;;;;;;10.73;6.05;;;;;;;17.01;70.95;101088.69;4147995;28;20132;-60
2022/05/17 04:48:07;;;;;;;12.00;6.35;;;;;;;17.02;71.14;101098.31;4144639;28;20153;-60
2022/05/17 04:50:12;;;;;;;8.00;5.53;;;;;;;17.04;71.21;101100.94;4149121;28;20069;-60
2022/05/17 04:52:15;;;;;;;8.68;5.95;;;;;;;17.06;71.24;101105.31;4150205;28;20030;-60
2022/05/17 04:54:18;;;;;;;8.07;5.53;;;;;;;17.08;71.37;101107.94;4148728;28;20037;-60
2022/05/17 04:56:24;;;;;;;8.27;5.78;;;;;;;17.12;71.69;101107.06;4150044;28;20036;-59
2022/05/17 04:58:27;;;;;;;8.90;6.35;;;;;;;17.10;71.82;101109.69;4150034;28;20398;-59
2022/05/17 05:00:30;;;;;;;8.13;6.28;;;;;;;17.09;72.11;101107.06;4149903;28;20052;-60
2022/05/17 05:02:33;;;;;;;10.02;6.60;;;;;;;17.10;72.45;101107.06;4149498;28;20038;-60
2022/05/17 05:04:38;;;;;;;9.07;6.35;;;;;;;17.14;72.38;101102.66;4150335;28;20176;-60
2022/05/17 05:06:41;;;;;;;9.88;5.90;;;;;;;17.18;72.14;101109.66;4149906;28;20407;-60
2022/05/17 05:08:43;;;;;;;8.30;5.70;;;;;;;17.24;72.15;101108.78;4149773;28;20034;-60
2022/05/17 05:10:47;;;;;;;9.30;6.38;;;;;;;17.33;72.22;101115.75;4149500;28;20046;-60
2022/05/17 05:12:51;;;;;;;8.57;6.00;;;;;;;17.38;72.17;101120.13;4150363;28;20053;-60
2022/05/17 05:14:54;;;;;;;6.93;5.60;;;;;;;17.43;72.37;101114.84;4149906;28;20040;-60
2022/05/17 05:16:58;;;;;;;8.65;6.55;;;;;;;17.51;71.95;101122.69;4149640;28;20038;-60
2022/05/17 05:19:00;;;;;;;8.40;5.90;;;;;;;17.56;71.96;101121.78;4149830;28;20511;-60
2022/05/17 05:21:05;;;;;;;11.48;6.75;;;;;;;17.60;72.02;101127.94;4149254;28;20049;-60
2022/05/17 05:23:09;;;;;;;9.80;6.47;;;;;;;17.61;72.01;101127.06;4149791;28;20034;-60
2022/05/17 05:25:12;;;;;;;10.32;7.72;;;;;;;17.63;72.05;101123.53;4148568;28;20580;-60
2022/05/17 05:27:15;;;;;;;10.68;6.90;;;;;;;17.66;72.08;101127.91;4149851;28;20041;-60
2022/05/17 05:29:19;;;;;;;9.80;7.53;;;;;;;17.71;72.12;101131.41;4149431;28;20045;-60
2022/05/17 05:31:22;;;;;;;10.57;7.82;;;;;;;17.74;72.10;101128.75;4147794;28;20037;-60
2022/05/17 05:33:25;;;;;;;10.10;7.20;;;;;;;17.79;71.90;101128.72;4149706;28;20045;-60
2022/05/17 05:35:29;;;;;;;13.55;9.30;;;;;;;17.75;72.57;101135.72;4149568;28;20135;-60
2022/05/17 05:37:32;;;;;;;11.18;7.18;;;;;;;17.79;72.30;101134.84;4149635;28;20108;-60
2022/05/17 05:39:35;;;;;;;8.43;6.43;;;;;;;17.85;72.18;101136.56;4159390;28;20502;-60
2022/05/17 05:41:38;;;;;;;9.13;7.05;;;;;;;17.89;72.05;101134.81;4148925;28;20496;-60
2022/05/17 05:43:41;;;;;;;11.77;7.60;;;;;;;17.97;71.82;101130.41;4149486;28;20487;-60
2022/05/17 05:45:46;;;;;;;11.77;8.57;;;;;;;17.99;71.90;101130.41;4149183;28;20491;-60
2022/05/17 05:47:48;;;;;;;12.65;9.68;;;;;;;17.96;71.58;101141.84;4148041;28;20041;-60
2022/05/17 05:49:51;;;;;;;10.82;8.75;;;;;;;17.99;71.44;101133.91;4149060;28;20044;-60
2022/05/17 05:51:54;;;;;;;10.25;7.60;;;;;;;18.05;71.73;101135.66;4148312;28;20072;-60
2022/05/17 05:54:00;;;;;;;14.07;9.43;;;;;;;18.10;71.49;101136.47;4149341;28;20377;-60
2022/05/17 05:56:03;;;;;;;9.57;6.97;;;;;;;18.17;71.51;101137.31;4148968;28;20451;-60
2022/05/17 05:58:07;;;;;;;15.07;9.13;;;;;;;18.30;71.21;101141.63;4147965;28;20054;-61
2022/05/17 06:00:11;;;;;;;15.23;8.90;;;;;;;18.31;71.19;101143.34;4148457;28;20053;-60
2022/05/17 06:02:17;;;;;;;14.35;8.40;;;;;;;18.35;71.16;101144.22;4149380;28;20427;-60
2022/05/17 06:04:19;;;;;;;13.75;8.60;;;;;;;18.37;71.05;101142.44;4149372;28;20042;-60
2022/05/17 06:06:28;;;;;;;10.85;8.40;;;;;;;18.42;70.70;101151.19;4164231;28;20087;-60
2022/05/17 06:08:31;;;;;;;10.82;7.60;;;;;;;18.45;71.18;101145.88;4148942;28;20076;-60
2022/05/17 06:10:37;;;;;;;14.13;8.20;;;;;;;18.53;70.62;101149.34;4148503;28;20068;-60
2022/05/17 06:12:40;;;;;;;10.50;7.43;;;;;;;18.56;70.56;101154.59;4164110;28;20033;-60
2022/05/17 06:14:42;;;;;;;10.75;7.70;;;;;;;18.60;70.65;101160.69;4148716;28;20042;-60
2022/05/17 06:16:45;;;;;;;12.65;9.00;;;;;;;18.67;70.42;101157.13;4147990;28;20099;-60
2022/05/17 06:18:49;;;;;;;13.27;8.25;;;;;;;18.70;69.73;101151.81;4139441;28;20054;-60
2022/05/17 06:20:55;;;;;;;12.25;7.53;;;;;;;18.67;69.73;101157.13;4150908;28;20580;-61
2022/05/17 06:22:57;;;;;;;14.05;8.38;;;;;;;18.64;70.24;101159.78;4147011;28;20048;-61
2022/05/17 06:25:01;;;;;;;8.77;6.60;;;;;;;18.63;70.09;101161.56;4148967;28;20155;-60
2022/05/17 06:27:05;;;;;;;9.32;7.03;;;;;;;18.59;70.22;101165.09;4148615;28;20041;-60
2022/05/17 06:29:08;;;;;;;14.70;7.93;;;;;;;18.68;69.87;101169.41;4148519;28;20057;-60
2022/05/17 06:31:12;;;;;;;8.15;6.50;;;;;;;18.76;69.71;101162.34;4148398;28;20136;-60
2022/05/17 06:33:16;;;;;;;10.05;7.60;;;;;;;18.72;70.14;101160.63;4148395;28;20038;-60
2022/05/17 06:35:20;;;;;;;10.43;7.10;;;;;;;18.76;69.86;101167.59;4148837;28;20050;-60
2022/05/17 06:37:24;;;;;;;9.80;7.03;;;;;;;18.72;70.21;101170.25;4147288;28;20042;-61
2022/05/17 06:39:27;;;;;;;13.48;7.43;;;;;;;18.80;70.25;101173.72;4148042;28;20042;-60
2022/05/17 06:41:30;;;;;;;9.00;7.13;;;;;;;18.92;69.38;101167.50;4148406;28;20034;-60
2022/05/17 06:43:38;;;;;;;10.10;7.43;;;;;;;18.86;69.53;101176.31;4148338;28;20030;-61
2022/05/17 06:45:41;;;;;;;9.45;6.78;;;;;;;18.93;69.01;101171.88;4148394;28;20034;-60
2022/05/17 06:47:46;;;;;;;10.65;7.47;;;;;;;18.88;69.31;101171.94;4147369;28;20046;-60
2022/05/17 06:49:49;;;;;;;10.70;7.10;;;;;;;19.04;69.19;101170.03;4162973;28;20048;-60
2022/05/17 06:51:53;;;;;;;13.25;7.70;;;;;;;19.12;68.82;101170.81;4148343;28;20064;-60
2022/05/17 06:53:56;;;;;;;9.48;6.82;;;;;;;19.26;68.54;101170.69;4148124;28;20057;-60
2022/05/17 06:55:59;;;;;;;7.70;6.15;;;;;;;19.34;68.66;101170.59;4147956;28;20125;-60
2022/05/17 06:58:03;;;;;;;11.15;7.85;;;;;;;19.36;68.55;101174.06;4148324;28;20092;-60
2022/05/17 07:00:08;;;;;;;12.13;6.90;;;;;;;19.40;67.78;101170.53;4147590;28;20411;-60
2022/05/17 07:02:11;;;;;;;13.82;8.05;;;;;;;19.48;67.65;101173.09;4147023;28;20129;-60
2022/05/17 07:04:15;;;;;;;11.25;8.48;;;;;;;19.54;67.43;101173.00;4148253;28;20097;-60
2022/05/17 07:06:17;;;;;;;12.07;8.02;;;;;;;19.59;67.46;101180.88;4148354;28;20048;-60
2022/05/17 07:08:22;;;;;;;13.43;8.52;;;;;;;19.66;67.05;101175.50;4146952;28;20038;-61
2022/05/17 07:15:07;;;;;;;15.10;9.68;;;;;;;19.54;66.70;101179.16;4147652;28;20038;-61
2022/05/17 07:17:13;;;;;;;14.40;8.73;;;;;;;19.64;67.22;101181.66;4148359;28;20072;-61
2022/05/17 07:19:16;;;;;;;10.93;8.77;;;;;;;19.66;66.85;101179.91;4148008;28;20125;-61
2022/05/17 07:21:35;;;;;;;12.30;8.25;;;;;;;19.63;66.92;101180.81;4147973;28;20045;-61
2022/05/17 07:23:40;;;;;;;14.23;9.40;;;;;;;19.65;66.88;101175.50;4147625;28;20033;-60
2022/05/17 07:25:45;;;;;;;15.05;11.07;;;;;;;19.70;66.10;101176.34;4162778;28;20041;-60
2022/05/17 07:27:48;;;;;;;15.77;11.10;;;;;;;19.71;66.09;101181.59;4148070;28;20107;-60
2022/05/17 07:29:51;;;;;;;13.75;11.23;;;;;;;19.79;66.12;101181.53;4147298;28;20041;-60
2022/05/17 07:31:54;;;;;;;16.27;13.07;;;;;;;19.85;65.52;101178.81;4148018;28;20048;-60
2022/05/17 07:33:59;;;;;;;16.45;12.68;;;;;;;19.95;65.17;101176.06;4147667;28;20057;-60
2022/05/17 07:36:04;;;;;;;17.55;13.52;;;;;;;20.01;65.04;101178.63;4147647;28;20534;-60
2022/05/17 07:38:07;;;;;;;;;;;;;;;19.92;64.64;101178.72;4148586;28;20077;-60
2022/05/17 07:40:13;;;;;;;13.77;8.73;;;;;;;20.11;65.43;101171.47;4145945;28;19960;-61
2022/05/17 07:42:16;;;;;;;16.45;11.38;;;;;;;20.26;64.66;101180.94;4146723;28;20042;-60
2022/05/17 07:44:19;;;;;;;23.70;18.95;;;;;;;20.42;63.15;101177.16;4162490;28;20061;-60
2022/05/17 07:46:22;;;;;;;18.95;15.02;;;;;;;20.43;62.86;101170.09;4147904;28;20050;-60
2022/05/17 07:48:26;;;;;;;16.60;12.68;;;;;;;20.51;62.95;101166.44;4147645;28;20415;-60
2022/05/17 07:50:29;;;;;;;18.42;13.82;;;;;;;20.53;62.77;101171.69;4146356;28;20530;-60
2022/05/17 07:52:32;;;;;;;18.80;13.57;;;;;;;20.56;62.76;101175.16;4147898;28;20112;-61
2022/05/17 07:54:37;;;;;;;18.35;13.02;;;;;;;20.57;62.61;101179.56;4147136;28;20038;-60
2022/05/17 07:56:41;;;;;;;17.52;11.32;;;;;;;20.66;62.73;101177.66;4147749;28;20069;-60
2022/05/17 07:58:46;;;;;;;15.98;10.75;;;;;;;20.68;62.23;101173.28;4147470;28;20041;-60
2022/05/17 08:00:49;;;;;;;14.02;11.10;;;;;;;20.66;62.31;101172.38;4147299;28;20137;-60
2022/05/17 08:02:53;;;;;;;14.25;10.27;;;;;;;20.75;62.36;101180.19;4146728;28;20053;-61
2022/05/17 08:04:56;;;;;;;13.55;10.43;;;;;;;20.87;62.64;101182.63;4147334;28;20042;-61
2022/05/17 08:06:59;;;;;;;14.98;10.30;;;;;;;21.03;61.75;101177.09;4147807;28;20096;-61
2022/05/17 08:09:02;;;;;;;12.32;8.32;;;;;;;21.10;61.41;101176.06;4147480;28;20037;-61
2022/05/17 08:11:05;;;;;;;15.25;9.30;;;;;;;21.15;61.78;101174.19;4146245;28;20129;-61
2022/05/17 08:13:10;;;;;;;11.40;8.10;;;;;;;21.26;60.75;101179.28;4149769;28;20420;-61
2022/05/17 08:15:16;;;;;;;10.80;7.88;;;;;;;21.37;60.38;101176.44;4150991;28;20088;-60
2022/05/17 08:17:21;;;;;;;14.45;9.65;;;;;;;21.52;59.07;101180.59;4151173;28;20065;-60
2022/05/17 08:19:24;;;;;;;10.70;7.90;;;;;;;21.51;58.71;101177.09;4149647;28;20045;-60
2022/05/17 08:21:27;;;;;;;10.00;7.07;;;;;;;21.44;58.87;101172.78;4148209;28;20092;-61
2022/05/17 08:23:30;;;;;;;18.98;8.40;;;;;;;21.36;58.96;101172.94;4142861;28;20139;-61
2022/05/17 08:27:55;;;;;;;14.60;8.32;;;;;;;21.61;58.87;101170.72;4150818;28;20419;-60
2022/05/17 08:30:00;;;;;;;13.30;7.35;;;;;;;21.66;58.30;101180.34;4150390;28;20057;-61
2022/05/17 08:34:23;;;;;;;11.68;5.70;;;;;;;21.70;58.31;101180.25;4150127;28;20072;-60
2022/05/17 08:36:26;;;;;;;11.27;6.43;;;;;;;21.72;57.44;101178.41;4148908;28;20048;-60
2022/05/17 08:38:31;;;;;;;9.40;6.03;;;;;;;21.81;57.47;101179.16;4149657;28;20129;-61
2022/05/17 08:40:40;;;;;;;9.43;5.57;;;;;;;21.81;58.47;101172.06;4139294;28;20129;-62
2022/05/17 08:42:50;;;;;;;8.95;4.82;;;;;;;21.84;57.82;101172.00;4142020;28;20034;-62
2022/05/17 08:45:02;;;;;;;6.68;4.57;;;;;;;21.94;57.55;101173.53;4144231;28;20084;-61
2022/05/17 08:47:12;;;;;;;9.35;5.55;;;;;;;21.99;57.50;101169.91;4146727;28;20042;-63
2022/05/17 08:49:40;;;;;;;8.45;5.00;;;;;;;22.00;56.88;101166.38;4143175;28;20041;-63
2022/05/17 08:51:46;;;;;;;10.20;4.75;;;;;;;22.09;55.75;101163.50;4148901;28;20111;-63
2022/05/17 08:53:49;;;;;;;7.82;3.58;;;;;;;22.14;54.27;101159.88;4150349;28;20050;-63
2022/05/17 08:55:52;;;;;;;7.15;3.70;;;;;;;22.16;53.76;101172.22;4150189;28;20398;-63
2022/05/17 08:58:01;;;;;;;8.40;3.92;;;;;;;22.14;53.53;101164.28;4150421;28;20046;-61
2022/05/17 09:00:07;;;;;;;5.65;2.70;;;;;;;22.04;52.49;101160.13;4148997;28;20060;-62
2022/05/17 09:02:18;;;;;;;7.97;3.10;;;;;;;22.13;51.73;101162.56;4149172;28;20048;-62
2022/05/17 09:04:36;;;;;;;5.45;2.88;;;;;;;22.26;52.31;101166.66;4144126;28;20496;-61
2022/05/17 09:06:45;;;;;;;8.68;3.22;;;;;;;22.41;53.84;101154.84;4134240;28;20046;-61
2022/05/17 09:08:55;;;;;;;5.95;3.33;;;;;;;22.51;52.53;101158.16;4138167;28;20108;-62
2022/05/17 09:11:07;;;;;;;7.80;3.67;;;;;;;22.53;54.13;101156.34;4133613;28;20403;-61
2022/05/17 09:13:15;;;;;;;7.60;3.70;;;;;;;22.57;52.82;101158.00;4133844;28;20054;-61
2022/05/17 09:15:19;;;;;;;12.75;4.90;;;;;;;22.71;51.81;101155.03;4133805;28;20045;-61
2022/05/17 09:17:25;;;;;;;7.78;4.47;;;;;;;22.91;50.06;101154.53;4133904;28;20065;-61
2022/05/17 09:19:28;;;;;;;8.68;4.72;;;;;;;22.95;49.40;101157.94;4141477;28;20411;-61
2022/05/17 09:21:34;;;;;;;8.23;3.83;;;;;;;22.94;50.34;101161.50;4148901;28;20038;-62
2022/05/17 09:23:37;;;;;;;7.30;4.10;;;;;;;23.06;48.94;101158.53;4147412;28;20419;-64
2022/05/17 09:26:03;;;;;;;14.82;5.85;;;;;;;23.27;47.56;101157.09;4150044;28;20069;-63
2022/05/17 09:28:06;;;;;;;15.00;6.10;;;;;;;23.11;48.01;101159.31;4149767;28;20120;-63
2022/05/17 09:30:12;;;;;;;9.63;7.18;;;;;;;23.06;47.79;101155.03;4148196;28;20042;-63
2022/05/17 09:32:27;;;;;;;12.60;5.57;;;;;;;23.01;48.64;101152.47;4132111;28;20579;-64
2022/05/17 09:34:32;;;;;;;;;;;;;;;23.02;49.17;101149.78;4132840;28;20133;-64
2022/05/17 09:36:43;;;;;;;9.82;4.60;;;;;;;23.16;50.21;101143.28;4144917;28;20286;-64
2022/05/17 09:38:48;;;;;;;12.73;5.78;;;;;;;23.35;48.04;101139.19;4148691;28;20054;-64
2022/05/17 09:40:51;;;;;;;;;;;;;;;23.39;48.43;101147.06;4149520;28;20496;-64
2022/05/17 09:43:02;;;;;;;8.77;4.80;;;;;;;23.48;47.32;101142.38;4149567;28;19928;-64
2022/05/17 09:45:14;;;;;;;9.90;4.45;;;;;;;23.47;47.79;101142.44;4149368;28;20103;-64
2022/05/17 09:47:27;;;;;;;13.02;5.07;;;;;;;23.38;47.63;101151.53;4132143;28;20046;-64
2022/05/17 09:54:29;;;;;;;10.38;4.57;;;;;;;23.63;48.75;101145.50;4149236;28;20049;-64